Airfield :







YOU CAN JOIN US ON...

 
LOGIN :

Register | Disclaimer

   EN    FR    IT 

 









Legend :    VFR   Marginal VFR   IFR   Intensive IFR   Very Intensive IFR
Visi :
Ceiling :
>= 8 km
>= 3000ft
5 to 8 km
1000 to 3000 ft
1500m to 5 km
500 to 1000 ft
800 to 1500m
200 to 500 ft
< 800m
< 200 ft
Symbols :   Thunderstorms  Fog  Heavy snow  Heavy precipitations  Wind > 20 kt






- Airport Elevation : 124 ft
- IATA code : YGV


CYGV - Havre St Pierre

CURRENT METAR :
  • 172337Z AUTO 25006KT 5SM BR OVC010 11/09 A2969 RMK SLP055

EXPIRED METARs :
  • 172300Z AUTO 26007KT 9SM OVC010 11/09 A2968 RMK SLP053
  • 172200Z AUTO 25008KT 9SM BKN014 OVC021 12/09 A2966 RMK SLP047
  • 172100Z AUTO 22008KT 9SM BKN019 13/09 A2965 RMK SLP042 DENSITY ALT 200FT
  • 172046Z AUTO 23009KT 210V280 9SM BKN019 13/09 A2965 RMK SLP041 DENSITY ALT 300FT

TAF TAF CYGV
Valid from the 17 at 20:00 until the 18 at 08:00 UTC


171938Z 1720/1808 21006KT P6SM FEW015 BKN060
TEMPO 1720/1803 P6SM -SHRA BKN015 OVC030
FM180300 25006KT P6SM SCT007 OVC015
TEMPO 1803/1806 OVC007
PROB30 1803/1806 1/2SM FG OVC002
FM180600 VRB03KT 1/2SM FG OVC002 RMK FCST BASED ON AUTO OBS. NXT FCST BY 180200Z
CZUL FIR / North America



MET'MAP, your aeronautical weather chart ! - Copyright ORBIFLY December 2007 - Disclaimer

ORBIFLY MET'MAP TEAM :

Programming & Development : Alexandra Zaïnal
Concept & original design : Baudouin d'Aumeries
Assistance for programming : Marc-Olivier Méhu
Technical & hardware support : Manuel Goepfert

Contact : metmap@orbifly.com




SOURCES & CREDITS :

   NOAA